Time;durP1;ratioP1;P1;durP2;ratioP2;P2;SDS_P1;SDS_P2;PMS_P1;PMS_P2;Temp;Humidity;BMP_temperature;BMP_pressure;BME280_temperature;BME280_humidity;BME280_pressure;Samples;Min_cycle;Max_cycle;Signal;HPM_P1;HPM_P2
2021/06/28 00:00:12;;;;;;;7.95;5.03;;;20.50;91.30;;;;;;5012386;28;20052;-77
2021/06/28 00:02:38;;;;;;;6.25;4.72;;;20.50;91.40;;;;;;5008984;28;20064;-78
2021/06/28 00:05:06;;;;;;;6.20;4.82;;;20.50;91.50;;;;;;5012064;28;20046;-78
2021/06/28 00:07:32;;;;;;;6.15;4.78;;;20.50;91.50;;;;;;5011694;28;20042;-77
2021/06/28 00:09:58;;;;;;;7.30;4.88;;;20.50;91.50;;;;;;5005140;28;20148;-78
2021/06/28 00:12:23;;;;;;;5.82;5.22;;;20.50;91.50;;;;;;5005486;28;20092;-78
2021/06/28 00:14:48;;;;;;;6.28;5.43;;;20.50;91.60;;;;;;5005224;28;20052;-78
2021/06/28 00:17:14;;;;;;;7.05;4.75;;;20.50;91.60;;;;;;5007599;28;20076;-78
2021/06/28 00:19:40;;;;;;;6.63;4.45;;;20.50;91.70;;;;;;5009109;28;20061;-77
2021/06/28 00:22:05;;;;;;;6.53;5.28;;;20.50;91.80;;;;;;5011905;28;20044;-77
2021/06/28 00:24:30;;;;;;;5.97;4.78;;;20.50;91.70;;;;;;5010760;28;20679;-77
2021/06/28 00:26:56;;;;;;;10.15;4.53;;;20.50;91.80;;;;;;5009574;28;20336;-77
2021/06/28 00:29:23;;;;;;;5.78;4.68;;;20.50;91.80;;;;;;5012346;28;20041;-78
2021/06/28 00:31:51;;;;;;;5.80;4.40;;;20.50;91.80;;;;;;5011878;28;20037;-79
2021/06/28 00:34:17;;;;;;;5.55;5.03;;;20.50;91.70;;;;;;5009376;28;20102;-78
2021/06/28 00:36:42;;;;;;;5.07;4.18;;;20.50;91.60;;;;;;5000606;28;20046;-79
2021/06/28 00:39:08;;;;;;;6.30;4.63;;;20.50;91.50;;;;;;4999537;28;20106;-79
2021/06/28 00:41:33;;;;;;;6.72;4.80;;;20.50;91.20;;;;;;5012433;28;20270;-79
2021/06/28 00:43:59;;;;;;;5.20;4.25;;;20.50;91.20;;;;;;5004368;28;20182;-80
2021/06/28 00:46:24;;;;;;;4.70;4.05;;;20.50;91.10;;;;;;5005392;28;20093;-80
2021/06/28 00:48:50;;;;;;;4.55;3.92;;;20.50;91.00;;;;;;5004970;28;20460;-79
2021/06/28 00:51:16;;;;;;;4.53;4.13;;;20.50;91.00;;;;;;5002135;28;20042;-79
2021/06/28 00:53:42;;;;;;;4.53;3.83;;;20.50;91.10;;;;;;5008420;28;20048;-79
2021/06/28 00:56:10;;;;;;;5.38;4.18;;;20.50;91.20;;;;;;5000207;28;20037;-79
2021/06/28 00:58:40;;;;;;;5.13;4.63;;;20.50;91.20;;;;;;5002352;28;20056;-79
2021/06/28 01:01:07;;;;;;;5.63;4.18;;;20.50;91.20;;;;;;5007929;28;20762;-79
2021/06/28 01:03:33;;;;;;;5.03;4.13;;;20.60;91.30;;;;;;5004574;28;20080;-79
2021/06/28 01:06:00;;;;;;;5.32;4.00;;;20.60;91.30;;;;;;5000499;28;20045;-78
2021/06/28 01:08:26;;;;;;;4.90;4.10;;;20.60;91.20;;;;;;5005627;28;20046;-79
2021/06/28 01:10:51;;;;;;;4.65;4.05;;;20.60;91.20;;;;;;5003596;28;20053;-79
2021/06/28 01:13:17;;;;;;;5.63;4.65;;;20.60;91.20;;;;;;5008475;28;20117;-79
2021/06/28 01:15:42;;;;;;;4.78;4.28;;;20.60;91.30;;;;;;5009476;28;20182;-78
2021/06/28 01:18:08;;;;;;;3.63;3.33;;;20.60;91.10;;;;;;5003102;28;20037;-79
2021/06/28 01:20:34;;;;;;;5.43;4.07;;;20.60;90.90;;;;;;5012448;28;20095;-80
2021/06/28 01:23:16;;;;;;;4.90;3.50;;;20.70;90.80;;;;;;5009623;28;20077;-79
2021/06/28 01:25:42;;;;;;;4.57;3.80;;;20.70;90.70;;;;;;5008037;28;20398;-79
2021/06/28 01:28:07;;;;;;;6.72;3.67;;;20.70;90.50;;;;;;5009059;28;20107;-79
2021/06/28 01:30:33;;;;;;;4.85;3.60;;;20.70;90.60;;;;;;5008894;28;20085;-77
2021/06/28 01:32:59;;;;;;;4.80;3.90;;;20.70;90.60;;;;;;5005146;28;20073;-78
2021/06/28 01:35:24;;;;;;;4.75;3.53;;;20.70;90.50;;;;;;5004182;28;20041;-78
2021/06/28 01:37:50;;;;;;;4.15;3.75;;;20.70;90.50;;;;;;5004102;28;20414;-78
2021/06/28 01:40:17;;;;;;;3.47;3.15;;;20.70;90.80;;;;;;4998789;28;20042;-78
2021/06/28 01:42:44;;;;;;;3.80;3.40;;;20.60;90.50;;;;;;5010528;28;20103;-78
2021/06/28 01:45:14;;;;;;;3.75;3.35;;;20.70;90.60;;;;;;5005669;28;20179;-77
2021/06/28 01:47:40;;;;;;;4.60;4.00;;;20.70;90.60;;;;;;5001954;28;20042;-79
2021/06/28 01:50:09;;;;;;;5.32;3.53;;;20.70;90.70;;;;;;5001845;28;20045;-79
2021/06/28 01:52:35;;;;;;;4.25;3.40;;;20.70;90.70;;;;;;5007772;28;20038;-79
2021/06/28 01:55:03;;;;;;;5.50;3.50;;;20.70;90.60;;;;;;5007629;28;20067;-79
2021/06/28 01:57:28;;;;;;;3.40;3.10;;;20.70;90.60;;;;;;5003501;28;20053;-78
2021/06/28 01:59:54;;;;;;;4.38;3.22;;;20.70;90.50;;;;;;5006599;28;20041;-78
2021/06/28 02:02:19;;;;;;;4.13;3.80;;;20.70;90.50;;;;;;5002319;28;20103;-78
2021/06/28 02:04:47;;;;;;;3.72;3.40;;;20.70;90.50;;;;;;5002760;28;20152;-78
2021/06/28 02:07:13;;;;;;;4.03;3.22;;;20.70;90.50;;;;;;5007412;28;20048;-79
2021/06/28 02:09:39;;;;;;;4.13;3.55;;;20.70;90.50;;;;;;5009309;28;20128;-78
2021/06/28 02:12:05;;;;;;;4.68;3.60;;;20.70;90.50;;;;;;5000009;28;20069;-77
2021/06/28 02:14:31;;;;;;;4.32;3.92;;;20.70;90.60;;;;;;5003806;28;20038;-78
2021/06/28 02:16:56;;;;;;;4.20;3.80;;;20.70;90.50;;;;;;5004018;28;20046;-79
2021/06/28 02:19:22;;;;;;;4.40;3.95;;;20.70;90.50;;;;;;5039724;28;20105;-79
2021/06/28 02:21:48;;;;;;;7.53;4.32;;;20.70;90.60;;;;;;5010305;28;20431;-79
2021/06/28 02:24:15;;;;;;;4.63;3.75;;;20.70;90.60;;;;;;5013456;28;20041;-78
2021/06/28 02:26:42;;;;;;;3.50;3.20;;;20.70;90.30;;;;;;5011009;28;20041;-78
2021/06/28 02:29:08;;;;;;;4.65;3.83;;;20.70;89.50;;;;;;5008162;28;20042;-78
2021/06/28 02:31:34;;;;;;;5.47;3.47;;;20.70;88.70;;;;;;5007076;28;20041;-78
2021/06/28 02:33:59;;;;;;;3.97;3.58;;;20.70;88.10;;;;;;5004445;28;20588;-79
2021/06/28 02:36:27;;;;;;;4.25;3.60;;;20.70;88.70;;;;;;5006983;28;20112;-78
2021/06/28 02:38:53;;;;;;;3.58;3.15;;;20.70;89.00;;;;;;5002181;28;20050;-79
2021/06/28 02:41:20;;;;;;;4.60;4.05;;;20.70;88.90;;;;;;5009960;28;20038;-78
2021/06/28 02:43:47;;;;;;;4.10;3.38;;;20.70;89.10;;;;;;5004397;28;20053;-79
2021/06/28 02:46:13;;;;;;;6.55;3.80;;;20.70;88.80;;;;;;5007092;28;20337;-78
2021/06/28 02:48:39;;;;;;;4.68;3.25;;;20.70;88.80;;;;;;5009688;28;20038;-79
2021/06/28 02:51:07;;;;;;;5.72;3.60;;;20.70;88.90;;;;;;5000783;28;20454;-79
2021/06/28 02:53:33;;;;;;;3.65;3.35;;;20.70;89.10;;;;;;5009385;28;20038;-79
2021/06/28 02:56:14;;;;;;;3.60;3.30;;;20.80;89.30;;;;;;5010927;28;20038;-79
2021/06/28 02:58:48;;;;;;;4.15;3.75;;;20.80;89.20;;;;;;5005879;28;20046;-79
2021/06/28 03:01:15;;;;;;;4.78;3.28;;;20.80;89.30;;;;;;5040738;28;20042;-78
2021/06/28 03:03:41;;;;;;;5.63;3.60;;;20.80;89.10;;;;;;5013960;28;20049;-78
2021/06/28 03:06:07;;;;;;;3.88;3.45;;;20.80;89.10;;;;;;5016054;28;20049;-79
2021/06/28 03:08:32;;;;;;;3.50;3.20;;;20.80;89.30;;;;;;5015229;28;20041;-79
2021/06/28 03:11:01;;;;;;;3.75;3.38;;;20.80;89.20;;;;;;5002213;28;20038;-79
2021/06/28 03:13:28;;;;;;;5.10;4.10;;;20.80;89.30;;;;;;5011185;28;20081;-79
2021/06/28 03:15:54;;;;;;;4.15;3.75;;;20.80;90.00;;;;;;5014345;28;20113;-78
2021/06/28 03:18:19;;;;;;;4.80;3.80;;;20.80;89.40;;;;;;5005798;28;20129;-78
2021/06/28 03:20:45;;;;;;;4.63;4.10;;;20.80;89.50;;;;;;5026245;28;20062;-79
2021/06/28 03:23:11;;;;;;;5.40;4.32;;;20.80;89.60;;;;;;5010967;28;20034;-79
2021/06/28 03:25:37;;;;;;;7.03;3.90;;;20.80;89.70;;;;;;5012229;28;20038;-79
2021/06/28 03:28:03;;;;;;;5.95;4.03;;;20.80;89.70;;;;;;5008713;28;20421;-78
2021/06/28 03:30:28;;;;;;;4.85;3.80;;;20.80;89.80;;;;;;5014699;28;20052;-79
2021/06/28 03:32:54;;;;;;;4.65;4.10;;;20.80;90.10;;;;;;5007888;28;20066;-79
2021/06/28 03:35:19;;;;;;;4.47;4.07;;;20.80;90.10;;;;;;5039875;28;20061;-79
2021/06/28 03:37:45;;;;;;;4.95;4.13;;;20.80;90.00;;;;;;5008151;28;20061;-78
2021/06/28 03:40:12;;;;;;;5.05;4.55;;;20.80;89.90;;;;;;5011010;28;20095;-79
2021/06/28 03:42:38;;;;;;;5.63;4.22;;;20.80;90.00;;;;;;5010838;28;20122;-79
2021/06/28 03:45:08;;;;;;;6.78;4.80;;;20.80;90.00;;;;;;5008588;28;20434;-79
2021/06/28 03:47:34;;;;;;;5.57;4.20;;;20.80;89.70;;;;;;5007120;28;20125;-79
2021/06/28 03:50:00;;;;;;;5.65;4.40;;;20.80;89.70;;;;;;5009575;28;20140;-78
2021/06/28 03:52:25;;;;;;;5.65;5.07;;;20.80;89.40;;;;;;5013224;28;20128;-79
2021/06/28 03:54:51;;;;;;;8.63;4.68;;;20.80;88.30;;;;;;5016354;28;20041;-79
2021/06/28 03:57:16;;;;;;;4.65;4.25;;;20.90;88.50;;;;;;5007109;28;20444;-79
2021/06/28 03:59:42;;;;;;;6.30;5.07;;;20.90;88.70;;;;;;5008024;28;20042;-77
2021/06/28 04:02:07;;;;;;;6.93;4.88;;;20.90;88.80;;;;;;5005964;28;20042;-78
2021/06/28 04:04:33;;;;;;;6.10;5.30;;;21.00;88.70;;;;;;5004465;28;20057;-78
2021/06/28 04:06:59;;;;;;;6.53;4.85;;;21.00;88.80;;;;;;5008821;28;20123;-78
2021/06/28 04:09:24;;;;;;;5.20;4.70;;;21.00;88.80;;;;;;5038732;28;20073;-78
2021/06/28 04:11:50;;;;;;;6.03;5.28;;;21.00;88.70;;;;;;5010193;28;20076;-79
2021/06/28 04:14:15;;;;;;;7.88;5.05;;;21.10;88.80;;;;;;5008362;28;20120;-80
2021/06/28 04:16:41;;;;;;;6.10;5.15;;;21.10;88.50;;;;;;5006379;28;20041;-79
2021/06/28 04:19:07;;;;;;;7.90;5.15;;;21.10;88.40;;;;;;5044694;28;20100;-79
2021/06/28 04:21:34;;;;;;;8.25;5.88;;;21.10;88.40;;;;;;5008933;28;20104;-79
2021/06/28 04:24:02;;;;;;;7.35;6.03;;;21.10;88.70;;;;;;5015983;28;20050;-79
2021/06/28 04:26:29;;;;;;;8.43;5.88;;;21.20;88.90;;;;;;5010501;28;20033;-79
2021/06/28 04:28:54;;;;;;;7.00;6.13;;;21.20;88.70;;;;;;5003363;28;20048;-79
2021/06/28 04:31:20;;;;;;;6.50;5.15;;;21.20;89.30;;;;;;5037208;28;20046;-79
2021/06/28 04:33:45;;;;;;;10.95;5.68;;;21.20;88.90;;;;;;5005703;28;20038;-79
2021/06/28 04:36:11;;;;;;;6.95;5.25;;;21.20;88.90;;;;;;5000924;28;20045;-77
2021/06/28 04:38:36;;;;;;;6.68;5.93;;;21.30;88.90;;;;;;5000830;28;20141;-79
2021/06/28 04:41:03;;;;;;;6.15;5.30;;;21.30;89.00;;;;;;5007129;28;20053;-80
2021/06/28 04:43:28;;;;;;;6.75;5.68;;;21.30;89.10;;;;;;5011827;28;20038;-80
2021/06/28 04:45:54;;;;;;;5.70;5.05;;;21.30;88.60;;;;;;5010299;28;20049;-80
2021/06/28 04:48:19;;;;;;;5.30;4.80;;;21.40;88.10;;;;;;5007871;28;20045;-77
2021/06/28 04:50:45;;;;;;;7.35;5.70;;;21.40;87.80;;;;;;5009665;28;20084;-79
2021/06/28 04:53:11;;;;;;;9.88;5.18;;;21.40;87.90;;;;;;5014414;28;20037;-80
2021/06/28 04:55:36;;;;;;;6.30;4.07;;;21.50;87.50;;;;;;5002148;28;20042;-80
2021/06/28 04:58:02;;;;;;;6.57;5.05;;;21.50;87.40;;;;;;5013644;28;20160;-78
2021/06/28 05:00:27;;;;;;;8.65;5.95;;;21.50;88.00;;;;;;5001209;28;20485;-80
2021/06/28 05:02:53;;;;;;;6.88;4.75;;;21.50;87.30;;;;;;5001643;28;20045;-78
2021/06/28 05:05:19;;;;;;;6.00;5.18;;;21.60;87.10;;;;;;5009158;28;20049;-79
2021/06/28 05:07:45;;;;;;;10.70;5.53;;;21.60;87.60;;;;;;5001139;28;20334;-79
2021/06/28 05:10:13;;;;;;;6.40;5.40;;;21.60;87.70;;;;;;5007490;28;20049;-81
2021/06/28 05:12:38;;;;;;;5.80;5.20;;;21.70;89.30;;;;;;5012396;28;20073;-79
2021/06/28 05:15:08;;;;;;;6.15;5.18;;;21.80;89.10;;;;;;5004463;28;20046;-80
2021/06/28 05:17:34;;;;;;;6.55;4.93;;;21.80;87.20;;;;;;5006242;28;20041;-79
2021/06/28 05:19:59;;;;;;;6.85;6.07;;;21.90;86.80;;;;;;5004312;28;20053;-79
2021/06/28 05:22:25;;;;;;;8.52;4.47;;;22.00;86.80;;;;;;5003686;28;20042;-79
2021/06/28 05:24:50;;;;;;;6.82;5.30;;;22.00;87.30;;;;;;4998525;28;20149;-78
2021/06/28 05:27:16;;;;;;;6.32;5.03;;;22.00;87.40;;;;;;5000178;28;20042;-79
2021/06/28 05:29:42;;;;;;;5.80;5.25;;;22.10;87.50;;;;;;5000587;28;20394;-79
2021/06/28 05:32:08;;;;;;;8.73;5.90;;;22.20;86.40;;;;;;5009521;28;20088;-79
2021/06/28 05:34:33;;;;;;;6.13;5.53;;;22.30;86.20;;;;;;5000747;28;20077;-79
2021/06/28 05:36:59;;;;;;;6.20;5.60;;;22.40;86.00;;;;;;5007545;28;20406;-79
2021/06/28 05:39:24;;;;;;;6.93;4.85;;;22.50;85.20;;;;;;5011282;28;20108;-79
2021/06/28 05:41:50;;;;;;;7.05;5.78;;;22.60;85.10;;;;;;5013278;28;20042;-78
2021/06/28 05:44:15;;;;;;;7.93;6.00;;;22.70;84.90;;;;;;5009333;28;20044;-78
2021/06/28 05:46:41;;;;;;;7.72;5.93;;;22.70;85.90;;;;;;5003826;28;20050;-79
2021/06/28 05:49:07;;;;;;;8.77;6.25;;;22.80;86.00;;;;;;5009224;28;20038;-80
2021/06/28 05:51:32;;;;;;;6.65;5.80;;;22.90;85.10;;;;;;5000146;28;20381;-79
2021/06/28 05:53:58;;;;;;;9.40;5.82;;;23.00;84.60;;;;;;5015415;28;20034;-79
2021/06/28 05:56:23;;;;;;;5.95;5.35;;;23.00;83.70;;;;;;5017548;28;20056;-77
2021/06/28 05:58:49;;;;;;;8.45;5.97;;;23.10;84.20;;;;;;4999538;28;20046;-79
2021/06/28 06:01:16;;;;;;;8.23;6.60;;;23.10;83.80;;;;;;5014145;28;20050;-79
2021/06/28 06:03:42;;;;;;;7.32;6.38;;;23.10;83.90;;;;;;5011516;28;20030;-78
2021/06/28 06:06:07;;;;;;;6.65;5.70;;;23.20;83.00;;;;;;5012233;28;20107;-78
2021/06/28 06:08:35;;;;;;;9.15;6.13;;;23.20;82.80;;;;;;5015164;28;20069;-78
2021/06/28 06:11:00;;;;;;;9.88;6.25;;;23.20;84.50;;;;;;5013321;28;20042;-78
2021/06/28 06:13:26;;;;;;;13.50;6.30;;;23.30;84.30;;;;;;5001516;28;20035;-80
2021/06/28 06:15:53;;;;;;;9.10;6.38;;;23.20;83.30;;;;;;5011471;28;20129;-80
2021/06/28 06:18:20;;;;;;;6.65;5.97;;;23.30;83.20;;;;;;5017648;28;20087;-78
2021/06/28 06:20:46;;;;;;;7.65;6.18;;;23.30;83.90;;;;;;5013036;28;20104;-80
2021/06/28 06:23:13;;;;;;;11.15;5.80;;;23.40;84.10;;;;;;5009784;28;20042;-80
2021/06/28 06:25:40;;;;;;;6.47;5.82;;;23.40;83.20;;;;;;5001682;28;20457;-78
2021/06/28 06:28:06;;;;;;;8.85;6.70;;;23.50;83.50;;;;;;5012382;28;20385;-79
2021/06/28 06:30:32;;;;;;;6.22;5.30;;;23.50;84.50;;;;;;5009779;28;20045;-78
2021/06/28 06:32:58;;;;;;;9.60;5.50;;;23.60;83.80;;;;;;5016162;28;20033;-78
2021/06/28 06:35:25;;;;;;;5.85;5.22;;;23.70;83.00;;;;;;5016838;28;20095;-80
2021/06/28 06:37:53;;;;;;;6.25;5.55;;;23.80;83.10;;;;;;5001763;28;20073;-78
2021/06/28 06:40:20;;;;;;;7.07;5.47;;;23.90;81.70;;;;;;5012131;28;20041;-79
2021/06/28 06:42:47;;;;;;;6.90;5.80;;;24.00;82.40;;;;;;5018440;28;20041;-81
2021/06/28 06:45:14;;;;;;;6.82;5.78;;;24.00;82.50;;;;;;5013912;28;20436;-78
2021/06/28 06:47:41;;;;;;;6.28;5.47;;;24.10;83.70;;;;;;5016363;28;20037;-79
2021/06/28 06:50:10;;;;;;;6.43;5.72;;;24.20;81.30;;;;;;5034423;28;20049;-79
2021/06/28 06:52:35;;;;;;;6.10;5.25;;;24.30;83.10;;;;;;5015588;28;20093;-80
2021/06/28 06:55:03;;;;;;;6.15;5.32;;;24.30;82.20;;;;;;5015834;28;20062;-79
2021/06/28 06:57:28;;;;;;;6.78;5.72;;;24.40;82.40;;;;;;5017046;28;20119;-80
2021/06/28 06:59:54;;;;;;;6.38;5.65;;;24.50;80.90;;;;;;5016492;28;20088;-79
2021/06/28 07:02:19;;;;;;;8.80;5.97;;;24.50;82.50;;;;;;5016869;28;20044;-79
2021/06/28 07:04:45;;;;;;;6.10;5.28;;;24.60;80.70;;;;;;5017285;28;20050;-80
2021/06/28 07:07:11;;;;;;;8.43;5.18;;;24.70;81.50;;;;;;5017431;28;20041;-79
2021/06/28 07:09:37;;;;;;;10.75;5.95;;;24.80;80.50;;;;;;5017064;28;20084;-79
2021/06/28 07:12:03;;;;;;;7.97;6.10;;;24.90;80.60;;;;;;5016959;28;20107;-80
2021/06/28 07:14:28;;;;;;;10.48;5.57;;;25.00;81.00;;;;;;5016508;28;20037;-79
2021/06/28 07:16:53;;;;;;;6.70;5.40;;;25.10;83.30;;;;;;5021544;28;20143;-78
2021/06/28 07:19:19;;;;;;;6.80;5.65;;;25.10;81.30;;;;;;5018513;28;20046;-78
2021/06/28 07:21:47;;;;;;;8.95;5.75;;;25.30;79.20;;;;;;5019748;28;20042;-79
2021/06/28 07:24:13;;;;;;;5.93;5.22;;;25.40;78.30;;;;;;5017130;28;20100;-79
2021/06/28 07:26:38;;;;;;;6.90;5.60;;;25.40;80.30;;;;;;5015608;28;20364;-79
2021/06/28 07:29:04;;;;;;;7.53;5.68;;;25.40;80.10;;;;;;5016962;28;20225;-79
2021/06/28 07:31:30;;;;;;;6.22;4.95;;;25.40;78.80;;;;;;5017314;28;20045;-78
2021/06/28 07:33:56;;;;;;;6.43;5.15;;;25.40;78.60;;;;;;5017461;28;20416;-88
2021/06/28 07:36:21;;;;;;;7.63;5.38;;;25.40;79.00;;;;;;5018573;28;20380;-87
2021/06/28 07:38:47;;;;;;;8.00;5.55;;;25.50;81.50;;;;;;5017277;28;20045;-88
2021/06/28 07:41:12;;;;;;;6.13;5.40;;;25.50;79.30;;;;;;5017665;28;20037;-88
2021/06/28 07:43:44;;;;;;;11.25;6.70;;;25.60;78.70;;;;;;5016974;28;20041;-88
2021/06/28 07:46:10;;;;;;;4.60;4.20;;;25.80;80.00;;;;;;5014844;28;20041;-79
2021/06/28 07:48:35;;;;;;;5.43;4.28;;;25.90;78.00;;;;;;5015534;28;20162;-78
2021/06/28 07:51:01;;;;;;;7.13;4.78;;;26.00;78.00;;;;;;5013745;28;20121;-78
2021/06/28 07:53:27;;;;;;;5.97;4.75;;;26.20;78.00;;;;;;5016058;28;20312;-79
2021/06/28 07:55:53;;;;;;;5.80;4.45;;;26.30;74.40;;;;;;5015794;28;20100;-79
2021/06/28 07:58:18;;;;;;;7.03;4.43;;;26.40;76.20;;;;;;5016846;28;20033;-80
2021/06/28 08:00:44;;;;;;;11.52;4.80;;;26.60;76.10;;;;;;5015203;28;20038;-78
2021/06/28 08:03:10;;;;;;;5.85;4.85;;;26.70;76.90;;;;;;5015384;28;20099;-79
2021/06/28 08:05:37;;;;;;;6.13;4.45;;;26.80;75.90;;;;;;5016957;28;20041;-79
2021/06/28 08:08:03;;;;;;;8.15;4.50;;;26.90;73.50;;;;;;5016598;28;20121;-78
2021/06/28 08:10:29;;;;;;;4.47;4.00;;;27.00;74.40;;;;;;5015072;28;20056;-79
2021/06/28 08:12:55;;;;;;;5.65;4.55;;;27.10;75.50;;;;;;5014946;28;20042;-81
2021/06/28 08:15:22;;;;;;;5.68;3.95;;;27.30;74.90;;;;;;5015670;28;20124;-80
2021/06/28 08:17:49;;;;;;;6.00;3.88;;;27.40;73.90;;;;;;5014875;28;20046;-80
2021/06/28 08:20:15;;;;;;;5.25;3.88;;;27.50;74.20;;;;;;5020092;28;20060;-80
2021/06/28 08:22:43;;;;;;;4.53;3.45;;;27.60;73.90;;;;;;5015588;28;20123;-80
2021/06/28 08:25:10;;;;;;;5.68;3.63;;;27.80;70.80;;;;;;5014672;28;20630;-80
2021/06/28 08:27:36;;;;;;;5.10;3.88;;;27.90;70.90;;;;;;5015274;28;20042;-80
2021/06/28 08:30:04;;;;;;;3.97;3.58;;;28.00;72.70;;;;;;5015653;28;20048;-79
2021/06/28 08:32:30;;;;;;;5.82;4.20;;;28.10;69.20;;;;;;5016850;28;20076;-80
2021/06/28 08:34:56;;;;;;;6.60;3.78;;;28.10;70.10;;;;;;5048549;28;20089;-80
2021/06/28 08:37:22;;;;;;;4.75;3.50;;;28.30;70.70;;;;;;5013793;28;20121;-79
2021/06/28 08:39:48;;;;;;;3.75;3.40;;;28.40;68.90;;;;;;5015481;28;20706;-79
2021/06/28 08:42:15;;;;;;;3.40;3.10;;;28.50;69.40;;;;;;5015664;28;20111;-80
2021/06/28 08:44:44;;;;;;;4.13;3.38;;;28.50;68.40;;;;;;5015265;28;20049;-79
2021/06/28 08:47:10;;;;;;;4.45;3.65;;;28.60;69.10;;;;;;5015417;28;20117;-80
2021/06/28 08:49:37;;;;;;;3.80;3.33;;;28.70;68.30;;;;;;5011299;28;20096;-80
2021/06/28 08:52:04;;;;;;;3.78;3.30;;;28.80;69.70;;;;;;5004706;28;20061;-79
2021/06/28 08:54:30;;;;;;;3.50;2.88;;;29.00;67.30;;;;;;5015569;28;20092;-78
2021/06/28 08:56:57;;;;;;;3.35;3.05;;;29.00;67.00;;;;;;5015803;28;20042;-79
2021/06/28 08:59:22;;;;;;;5.22;3.80;;;29.20;65.00;;;;;;5034964;28;20120;-79
2021/06/28 09:01:48;;;;;;;4.15;3.55;;;29.30;68.10;;;;;;5035191;28;20124;-79
2021/06/28 09:04:13;;;;;;;3.90;2.97;;;29.30;69.30;;;;;;5018646;28;20041;-79
2021/06/28 09:06:40;;;;;;;6.90;3.75;;;29.50;65.80;;;;;;5014549;28;20214;-79
2021/06/28 09:09:09;;;;;;;7.25;3.45;;;29.50;67.00;;;;;;5014769;28;20116;-79
2021/06/28 09:11:37;;;;;;;4.90;3.65;;;29.50;67.00;;;;;;5012737;28;20452;-79
2021/06/28 09:14:05;;;;;;;3.92;3.25;;;29.60;67.10;;;;;;5015190;28;20136;-79
2021/06/28 09:16:31;;;;;;;3.50;2.90;;;29.60;68.40;;;;;;5014614;28;20042;-79
2021/06/28 09:19:01;;;;;;;3.65;3.35;;;29.60;67.70;;;;;;5012868;28;20115;-79
2021/06/28 09:21:31;;;;;;;3.63;3.20;;;29.60;67.30;;;;;;5014301;28;20057;-79
2021/06/28 09:23:59;;;;;;;4.43;2.88;;;29.80;68.40;;;;;;5013494;28;20045;-78
2021/06/28 09:26:29;;;;;;;5.03;3.30;;;29.90;65.30;;;;;;5013710;28;20048;-80
2021/06/28 09:28:59;;;;;;;3.70;2.97;;;30.00;64.10;;;;;;5012933;28;20054;-79
2021/06/28 09:31:43;;;;;;;3.70;2.72;;;30.10;65.30;;;;;;5013131;28;20073;-80
2021/06/28 09:34:17;;;;;;;4.50;2.88;;;30.20;63.00;;;;;;5015185;28;20062;-79
2021/06/28 09:36:52;;;;;;;3.55;3.25;;;30.40;63.40;;;;;;5014232;28;20037;-79
2021/06/28 09:39:30;;;;;;;9.75;3.03;;;30.50;62.20;;;;;;5013091;28;20042;-80
2021/06/28 09:42:06;;;;;;;4.40;2.78;;;30.70;61.70;;;;;;5013507;28;20048;-79
2021/06/28 09:44:33;;;;;;;3.10;2.83;;;30.70;63.30;;;;;;5013536;28;20124;-78
2021/06/28 09:47:04;;;;;;;3.97;2.35;;;30.80;64.70;;;;;;5013866;28;20133;-78
2021/06/28 09:49:30;;;;;;;3.33;2.90;;;30.90;60.50;;;;;;5045111;28;20042;-78
2021/06/28 09:51:55;;;;;;;3.10;2.60;;;31.00;60.10;;;;;;5013234;28;20108;-78
2021/06/28 09:54:21;;;;;;;3.55;2.85;;;31.00;62.80;;;;;;5012837;28;20034;-80
2021/06/28 09:56:53;;;;;;;3.60;2.47;;;31.10;60.70;;;;;;5013021;28;20424;-80
2021/06/28 09:59:31;;;;;;;2.95;2.65;;;31.20;59.90;;;;;;5012429;28;20052;-80
2021/06/28 10:02:21;;;;;;;2.92;2.72;;;31.30;59.60;;;;;;5013931;28;20141;-80
2021/06/28 10:05:01;;;;;;;3.00;2.70;;;31.30;61.80;;;;;;5011768;28;20087;-79
2021/06/28 10:07:35;;;;;;;5.60;3.10;;;31.30;62.10;;;;;;5012954;28;20154;-80
2021/06/28 10:10:23;;;;;;;2.60;2.40;;;31.40;60.90;;;;;;5029825;28;20427;-79
2021/06/28 10:12:52;;;;;;;3.83;2.58;;;31.50;59.60;;;;;;5013386;28;20262;-79
2021/06/28 10:15:19;;;;;;;3.10;2.65;;;31.60;61.40;;;;;;5012504;28;20037;-80
2021/06/28 10:17:46;;;;;;;2.97;2.45;;;31.60;59.50;;;;;;5012562;28;20376;-79
2021/06/28 10:20:15;;;;;;;2.53;2.33;;;31.60;62.80;;;;;;5012427;28;20045;-81
2021/06/28 10:22:42;;;;;;;2.80;2.58;;;31.70;61.60;;;;;;5013863;28;20037;-88
2021/06/28 10:25:09;;;;;;;2.92;2.70;;;31.80;61.10;;;;;;5013377;28;20042;-90
2021/06/28 10:27:35;;;;;;;3.53;3.22;;;31.90;61.10;;;;;;5015771;28;20038;-88
2021/06/28 10:30:08;;;;;;;3.25;2.70;;;31.90;58.70;;;;;;5013747;28;20286;-85
2021/06/28 10:32:34;;;;;;;2.58;2.38;;;32.00;61.90;;;;;;5013509;28;20041;-88
2021/06/28 10:35:01;;;;;;;2.72;2.33;;;32.10;59.60;;;;;;5008409;28;20046;-90
2021/06/28 10:37:46;;;;;;;3.42;2.22;;;32.20;56.30;;;;;;5017702;28;20038;-80
2021/06/28 10:40:17;;;;;;;4.22;2.35;;;32.10;57.60;;;;;;5017764;28;20120;-81
2021/06/28 10:42:48;;;;;;;3.03;2.20;;;32.20;58.30;;;;;;5017018;28;20061;-83
2021/06/28 10:45:17;;;;;;;3.80;3.35;;;32.20;57.00;;;;;;5016801;28;20129;-91
2021/06/28 10:48:06;;;;;;;3.47;2.65;;;32.30;58.00;;;;;;5017494;28;20128;-84
2021/06/28 10:50:51;;;;;;;3.00;2.60;;;32.20;57.50;;;;;;5016624;28;20052;-83
2021/06/28 10:53:38;;;;;;;3.08;2.75;;;32.20;56.40;;;;;;5016583;28;20121;-83
2021/06/28 10:56:27;;;;;;;2.45;2.25;;;32.10;60.00;;;;;;5015361;28;20042;-84
2021/06/28 10:58:55;;;;;;;2.60;2.28;;;32.20;57.20;;;;;;5016518;28;20049;-84
2021/06/28 11:01:35;;;;;;;6.45;2.70;;;32.20;58.00;;;;;;5019251;28;20030;-85
2021/06/28 11:04:08;;;;;;;3.03;2.13;;;32.20;58.90;;;;;;5024692;28;20053;-84
2021/06/28 11:06:35;;;;;;;2.17;1.98;;;32.20;56.50;;;;;;5017947;28;20037;-84
2021/06/28 11:09:06;;;;;;;5.97;2.20;;;32.20;55.20;;;;;;5018201;28;20267;-84
2021/06/28 11:11:47;;;;;;;2.30;2.10;;;32.30;55.40;;;;;;5016597;28;20132;-85
2021/06/28 11:14:18;;;;;;;2.80;2.50;;;32.30;56.10;;;;;;5008226;28;20105;-84
2021/06/28 11:16:57;;;;;;;2.50;2.30;;;32.40;56.70;;;;;;5008302;28;20034;-84
2021/06/28 11:22:51;;;;;;;;;;;32.60;54.50;;;;;;4964473;28;20043;-84
2021/06/28 11:25:19;;;;;;;9.68;3.08;;;32.60;53.80;;;;;;4991824;28;19924;-85
2021/06/28 11:27:58;;;;;;;4.80;2.30;;;32.60;55.90;;;;;;5011238;28;20357;-85
2021/06/28 11:30:26;;;;;;;21.15;3.70;;;32.50;54.20;;;;;;5032208;28;20041;-86
2021/06/28 11:32:59;;;;;;;3.03;2.60;;;32.40;57.30;;;;;;5000863;28;20048;-84
2021/06/28 11:35:49;;;;;;;2.40;2.15;;;32.40;53.60;;;;;;5029915;28;20067;-85
2021/06/28 11:38:26;;;;;;;3.42;1.42;;;32.30;53.40;;;;;;5023552;28;20041;-84
2021/06/28 11:40:58;;;;;;;1.95;1.83;;;32.20;52.60;;;;;;5019541;28;20049;-84
2021/06/28 11:43:52;;;;;;;3.30;2.15;;;32.10;56.90;;;;;;5014298;28;20034;-85
2021/06/28 11:46:29;;;;;;;3.45;2.47;;;32.10;55.40;;;;;;5007358;28;20041;-84
2021/06/28 11:48:57;;;;;;;2.40;2.17;;;32.10;58.80;;;;;;5028215;28;20053;-84
2021/06/28 11:51:34;;;;;;;3.20;2.63;;;32.20;58.70;;;;;;5006576;28;20124;-86
2021/06/28 11:54:02;;;;;;;2.25;2.05;;;32.30;55.30;;;;;;5008020;28;20030;-85
2021/06/28 11:56:34;;;;;;;2.72;2.08;;;32.30;57.70;;;;;;5005120;28;20061;-85
2021/06/28 11:59:03;;;;;;;3.75;2.30;;;32.40;57.00;;;;;;5015439;28;20049;-84
2021/06/28 12:01:38;;;;;;;3.38;2.28;;;32.50;57.20;;;;;;5000166;28;20037;-84
2021/06/28 12:04:05;;;;;;;2.15;1.85;;;32.60;54.30;;;;;;5013762;28;20061;-85
2021/06/28 12:06:34;;;;;;;3.28;2.28;;;32.60;54.50;;;;;;4998130;28;20042;-85
2021/06/28 12:09:04;;;;;;;3.25;2.20;;;32.60;54.00;;;;;;5004722;28;20050;-84
2021/06/28 12:11:29;;;;;;;2.90;2.17;;;32.60;56.30;;;;;;5007086;28;20034;-84
2021/06/28 12:13:55;;;;;;;3.38;2.50;;;32.60;56.60;;;;;;5021596;28;20049;-83
2021/06/28 12:16:26;;;;;;;1.88;1.65;;;32.70;55.90;;;;;;5016091;28;20143;-85
2021/06/28 12:19:07;;;;;;;3.03;2.45;;;32.90;52.60;;;;;;5034893;28;20076;-84
2021/06/28 12:21:36;;;;;;;2.65;2.05;;;33.00;52.30;;;;;;5034630;28;20046;-83
2021/06/28 12:24:14;;;;;;;2.60;1.98;;;33.00;55.50;;;;;;5028615;28;20041;-85
2021/06/28 12:26:58;;;;;;;2.53;1.90;;;33.00;54.60;;;;;;5004815;28;20044;-84
2021/06/28 12:29:36;;;;;;;3.80;2.22;;;32.90;54.60;;;;;;5014366;28;20034;-86
2021/06/28 12:32:07;;;;;;;3.67;2.13;;;32.90;54.20;;;;;;4996410;28;20034;-85
2021/06/28 12:34:34;;;;;;;2.90;2.20;;;33.00;52.20;;;;;;4995059;28;20034;-84
2021/06/28 12:37:01;;;;;;;4.55;2.42;;;32.90;54.50;;;;;;4995712;28;20189;-84
2021/06/28 12:39:28;;;;;;;2.10;1.85;;;33.00;56.10;;;;;;4996955;28;20049;-85
2021/06/28 12:42:08;;;;;;;2.42;2.17;;;32.90;54.20;;;;;;5041788;28;20046;-84
2021/06/28 12:44:33;;;;;;;3.42;2.00;;;32.90;54.50;;;;;;5008294;28;20045;-85
2021/06/28 12:46:59;;;;;;;6.82;1.88;;;33.00;56.90;;;;;;5002366;28;20049;-84
2021/06/28 12:49:25;;;;;;;2.15;1.95;;;33.10;54.00;;;;;;5006006;28;20049;-86
2021/06/28 12:51:50;;;;;;;2.10;1.90;;;33.10;52.30;;;;;;5016437;28;20037;-84
2021/06/28 12:54:27;;;;;;;5.00;2.78;;;33.20;52.30;;;;;;5010807;28;20049;-84